Time;durP1;ratioP1;P1;durP2;ratioP2;P2;SDS_P1;SDS_P2;PMS_P1;PMS_P2;Temp;Humidity;BMP_temperature;BMP_pressure;BME280_temperature;BME280_humidity;BME280_pressure;Samples;Min_cycle;Max_cycle;Signal;HPM_P1;HPM_P2
2024/01/26 00:00:08;;;;;;;11.10;3.90;;;;;;;;;;5033651;28;20449;-67
2024/01/26 00:02:35;;;;;;;14.90;3.77;;;;;;;;;;5033507;28;20457;-67
2024/01/26 00:05:02;;;;;;;5.83;3.37;;;;;;;;;;5033317;28;20457;-67
2024/01/26 00:07:29;;;;;;;9.32;3.50;;;;;;;;;;5033364;28;20813;-67
2024/01/26 00:09:58;;;;;;;8.68;3.38;;;;;;;;;;5033222;28;20190;-67
2024/01/26 00:12:25;;;;;;;7.40;3.50;;;;;;;;;;5033450;28;20324;-67
2024/01/26 00:14:51;;;;;;;8.77;3.50;;;;;;;;;;5033120;28;20449;-67
2024/01/26 00:17:18;;;;;;;6.90;3.33;;;;;;;;;;5033157;28;20556;-67
2024/01/26 00:19:45;;;;;;;16.00;3.35;;;;;;;;;;5033232;28;20528;-67
2024/01/26 00:22:12;;;;;;;7.47;3.63;;;;;;;;;;5033101;28;20309;-67
2024/01/26 00:24:39;;;;;;;4.57;2.93;;;;;;;;;;5032785;28;20532;-67
2024/01/26 00:27:07;;;;;;;6.90;3.60;;;;;;;;;;5033254;28;20539;-67
2024/01/26 00:29:34;;;;;;;12.20;3.58;;;;;;;;;;5033152;28;20618;-67
2024/01/26 00:32:01;;;;;;;9.87;3.93;;;;;;;;;;5032941;28;20670;-67
2024/01/26 00:34:28;;;;;;;9.50;3.60;;;;;;;;;;5032992;28;20552;-67
2024/01/26 00:36:58;;;;;;;12.00;4.50;;;;;;;;;;5032845;28;20237;-67
2024/01/26 00:39:25;;;;;;;22.42;4.75;;;;;;;;;;5033092;28;20885;-67
2024/01/26 00:41:52;;;;;;;11.18;4.38;;;;;;;;;;5033047;28;20186;-67
2024/01/26 00:44:20;;;;;;;10.50;4.75;;;;;;;;;;5033055;28;20226;-67
2024/01/26 00:46:47;;;;;;;9.38;3.85;;;;;;;;;;5032923;28;20278;-66
2024/01/26 00:49:14;;;;;;;13.35;3.30;;;;;;;;;;5032866;28;20277;-67
2024/01/26 00:51:41;;;;;;;9.00;3.70;;;;;;;;;;5032673;28;20277;-67
2024/01/26 00:54:08;;;;;;;10.02;3.95;;;;;;;;;;5032925;28;20186;-66
2024/01/26 00:56:36;;;;;;;14.68;3.10;;;;;;;;;;5032878;28;20187;-67
2024/01/26 00:59:03;;;;;;;15.57;5.00;;;;;;;;;;5033830;28;20749;-67
2024/01/26 01:01:31;;;;;;;11.10;3.50;;;;;;;;;;5036751;28;20697;-67
2024/01/26 01:03:58;;;;;;;8.98;3.45;;;;;;;;;;5036762;28;20280;-67
2024/01/26 01:06:26;;;;;;;10.90;3.05;;;;;;;;;;5036613;28;20221;-67
2024/01/26 01:08:53;;;;;;;11.85;3.90;;;;;;;;;;5036771;28;20191;-67
2024/01/26 01:11:20;;;;;;;10.52;3.67;;;;;;;;;;5036708;28;20229;-67
2024/01/26 01:13:47;;;;;;;10.27;2.38;;;;;;;;;;5036704;28;20190;-67
2024/01/26 01:16:15;;;;;;;8.40;3.60;;;;;;;;;;5036581;28;20281;-67
2024/01/26 01:18:43;;;;;;;12.85;3.65;;;;;;;;;;5036299;28;20480;-67
2024/01/26 01:21:10;;;;;;;11.35;3.35;;;;;;;;;;5036549;28;20229;-67
2024/01/26 01:23:37;;;;;;;8.75;3.13;;;;;;;;;;5036545;28;20621;-67
2024/01/26 01:26:04;;;;;;;7.88;3.60;;;;;;;;;;5036181;28;20313;-67
2024/01/26 01:28:31;;;;;;;9.65;3.63;;;;;;;;;;5036227;28;20240;-67
2024/01/26 01:30:58;;;;;;;6.50;3.58;;;;;;;;;;5036288;28;20190;-67
2024/01/26 01:33:25;;;;;;;8.35;4.05;;;;;;;;;;5036069;28;20273;-67
2024/01/26 01:35:53;;;;;;;16.08;4.50;;;;;;;;;;5036277;28;20279;-67
2024/01/26 01:38:20;;;;;;;19.80;3.63;;;;;;;;;;5036172;28;20617;-67
2024/01/26 01:40:47;;;;;;;5.05;3.13;;;;;;;;;;5036013;28;20725;-67
2024/01/26 01:43:17;;;;;;;8.68;3.65;;;;;;;;;;5036050;28;20273;-67
2024/01/26 01:45:44;;;;;;;12.02;4.40;;;;;;;;;;5035896;28;20191;-67
2024/01/26 01:48:11;;;;;;;9.55;3.45;;;;;;;;;;5036115;28;20281;-67
2024/01/26 01:50:38;;;;;;;7.95;3.22;;;;;;;;;;5035929;28;20226;-67
2024/01/26 01:53:08;;;;;;;9.35;4.30;;;;;;;;;;5035750;28;20257;-67
2024/01/26 01:55:36;;;;;;;8.38;4.03;;;;;;;;;;5035844;28;20626;-67
2024/01/26 01:58:03;;;;;;;16.67;3.83;;;;;;;;;;5035592;28;20640;-67
2024/01/26 02:00:32;;;;;;;11.68;3.67;;;;;;;;;;5035594;28;20657;-67
2024/01/26 02:02:59;;;;;;;11.20;3.85;;;;;;;;;;5035756;28;20233;-67
2024/01/26 02:05:26;;;;;;;11.95;3.25;;;;;;;;;;5035719;28;20277;-67
2024/01/26 02:07:53;;;;;;;12.30;3.83;;;;;;;;;;5035629;28;20198;-67
2024/01/26 02:10:21;;;;;;;9.45;3.22;;;;;;;;;;5034793;28;20285;-67
2024/01/26 02:12:48;;;;;;;11.13;4.38;;;;;;;;;;5035385;28;20198;-67
2024/01/26 02:15:15;;;;;;;7.93;3.85;;;;;;;;;;5035610;28;20273;-67
2024/01/26 02:17:42;;;;;;;10.00;4.43;;;;;;;;;;5035359;28;20282;-67
2024/01/26 02:20:10;;;;;;;8.00;3.80;;;;;;;;;;5035391;28;20601;-67
2024/01/26 02:22:37;;;;;;;8.88;3.05;;;;;;;;;;5035301;28;20445;-67
2024/01/26 02:25:06;;;;;;;11.32;3.90;;;;;;;;;;5035043;28;20226;-67
2024/01/26 02:27:33;;;;;;;9.65;3.53;;;;;;;;;;5035133;28;20285;-66
2024/01/26 02:30:00;;;;;;;9.05;3.72;;;;;;;;;;5035284;28;20228;-66
2024/01/26 02:32:27;;;;;;;9.75;3.83;;;;;;;;;;5035252;28;20194;-67
2024/01/26 02:34:54;;;;;;;9.35;3.65;;;;;;;;;;5035169;28;20614;-67
2024/01/26 02:37:21;;;;;;;9.10;3.83;;;;;;;;;;5034940;28;20734;-67
2024/01/26 02:39:48;;;;;;;7.72;4.10;;;;;;;;;;5034879;28;20229;-67
2024/01/26 02:42:16;;;;;;;6.20;3.17;;;;;;;;;;5034833;28;20197;-67
2024/01/26 02:44:43;;;;;;;6.13;3.17;;;;;;;;;;5034984;28;20285;-67
2024/01/26 02:47:10;;;;;;;14.48;5.07;;;;;;;;;;5034946;28;20608;-67
2024/01/26 02:49:37;;;;;;;9.00;3.42;;;;;;;;;;5034827;28;20197;-67
2024/01/26 02:52:04;;;;;;;13.00;3.85;;;;;;;;;;5034679;28;20197;-67
2024/01/26 02:54:31;;;;;;;13.10;3.97;;;;;;;;;;5034593;28;20194;-67
2024/01/26 02:56:58;;;;;;;8.32;4.05;;;;;;;;;;5034851;28;20191;-67
2024/01/26 02:59:27;;;;;;;12.63;4.13;;;;;;;;;;5034673;28;20222;-67
2024/01/26 03:01:54;;;;;;;8.70;3.53;;;;;;;;;;5034643;28;20281;-67
2024/01/26 03:04:21;;;;;;;13.02;3.60;;;;;;;;;;5034473;28;20734;-67
2024/01/26 03:06:48;;;;;;;5.38;3.58;;;;;;;;;;5034433;28;20281;-67
2024/01/26 03:09:15;;;;;;;5.47;3.38;;;;;;;;;;5034324;28;20194;-67
2024/01/26 03:11:43;;;;;;;6.90;3.08;;;;;;;;;;5034515;28;20191;-67
2024/01/26 03:14:11;;;;;;;6.65;2.90;;;;;;;;;;5034332;28;20199;-67
2024/01/26 03:16:41;;;;;;;9.35;3.35;;;;;;;;;;5034390;28;20190;-67
2024/01/26 03:19:08;;;;;;;7.90;4.28;;;;;;;;;;5034207;28;20442;-67
2024/01/26 03:21:35;;;;;;;7.20;4.35;;;;;;;;;;5034235;28;20222;-67
2024/01/26 03:24:02;;;;;;;9.73;4.20;;;;;;;;;;5034037;28;20636;-67
2024/01/26 03:26:29;;;;;;;18.20;5.10;;;;;;;;;;5033936;28;20215;-67
2024/01/26 03:28:56;;;;;;;9.32;4.40;;;;;;;;;;5034105;28;20305;-67
2024/01/26 03:31:23;;;;;;;8.27;3.88;;;;;;;;;;5033925;28;20195;-67
2024/01/26 03:33:51;;;;;;;9.07;4.05;;;;;;;;;;5033933;28;20285;-67
2024/01/26 03:36:18;;;;;;;7.00;3.03;;;;;;;;;;5033776;28;20280;-67
2024/01/26 03:38:45;;;;;;;9.52;3.63;;;;;;;;;;5033658;28;20560;-67
2024/01/26 03:41:13;;;;;;;10.02;5.35;;;;;;;;;;5033887;28;20554;-67
2024/01/26 03:43:40;;;;;;;15.38;4.00;;;;;;;;;;5033797;28;20237;-67
2024/01/26 03:46:07;;;;;;;7.97;3.20;;;;;;;;;;5033810;28;20713;-67
2024/01/26 03:48:34;;;;;;;11.30;3.97;;;;;;;;;;5033607;28;20222;-67
2024/01/26 03:51:02;;;;;;;17.02;3.50;;;;;;;;;;5033563;28;20569;-67
2024/01/26 03:53:29;;;;;;;7.47;3.72;;;;;;;;;;5033658;28;20286;-67
2024/01/26 03:55:56;;;;;;;5.78;4.00;;;;;;;;;;5033621;28;20277;-67
2024/01/26 03:58:23;;;;;;;10.13;3.50;;;;;;;;;;5033515;28;20546;-67
2024/01/26 04:00:50;;;;;;;5.35;3.10;;;;;;;;;;5033541;28;20281;-67
2024/01/26 04:03:17;;;;;;;6.15;3.95;;;;;;;;;;5033318;28;20194;-67
2024/01/26 04:05:44;;;;;;;13.80;5.05;;;;;;;;;;5033533;28;20281;-67
2024/01/26 04:08:13;;;;;;;14.23;4.75;;;;;;;;;;5033485;28;20199;-67
2024/01/26 04:10:40;;;;;;;10.05;3.75;;;;;;;;;;5033325;28;20190;-67
2024/01/26 04:13:07;;;;;;;13.80;5.10;;;;;;;;;;5033257;28;20191;-67
2024/01/26 04:15:34;;;;;;;12.07;4.57;;;;;;;;;;5033178;28;20278;-67
2024/01/26 04:18:01;;;;;;;6.95;3.30;;;;;;;;;;5033043;28;20194;-67
2024/01/26 04:20:28;;;;;;;10.45;4.22;;;;;;;;;;5033214;28;20273;-67
2024/01/26 04:22:55;;;;;;;8.65;4.07;;;;;;;;;;5033294;28;20221;-67
2024/01/26 04:25:24;;;;;;;10.30;5.05;;;;;;;;;;5034945;28;20682;-67
2024/01/26 04:27:51;;;;;;;6.28;3.53;;;;;;;;;;5033053;28;20260;-66
2024/01/26 04:30:18;;;;;;;11.98;4.88;;;;;;;;;;5032967;28;20222;-67
2024/01/26 04:32:45;;;;;;;9.05;4.40;;;;;;;;;;5033152;28;20198;-67
2024/01/26 04:35:12;;;;;;;12.75;3.88;;;;;;;;;;5032702;28;20277;-67
2024/01/26 04:37:39;;;;;;;6.50;3.75;;;;;;;;;;5033016;28;20190;-67
2024/01/26 04:40:07;;;;;;;6.07;3.70;;;;;;;;;;5032895;28;20313;-67
2024/01/26 04:42:36;;;;;;;7.20;3.30;;;;;;;;;;5032811;28;20638;-67
2024/01/26 04:45:03;;;;;;;10.88;4.80;;;;;;;;;;5032769;28;20195;-67
2024/01/26 04:47:29;;;;;;;11.63;3.95;;;;;;;;;;5033062;28;20273;-67
2024/01/26 04:49:56;;;;;;;17.30;4.40;;;;;;;;;;5032987;28;20192;-67
2024/01/26 04:52:23;;;;;;;9.27;4.57;;;;;;;;;;5032690;28;20194;-67
2024/01/26 04:54:50;;;;;;;8.98;4.93;;;;;;;;;;5032854;28;20700;-67
2024/01/26 04:57:17;;;;;;;10.45;4.25;;;;;;;;;;5032697;28;20273;-67
2024/01/26 04:59:45;;;;;;;13.63;4.95;;;;;;;;;;5032547;28;20222;-67
2024/01/26 05:02:12;;;;;;;11.70;5.22;;;;;;;;;;5032963;28;20309;-67
2024/01/26 05:04:39;;;;;;;12.95;4.68;;;;;;;;;;5032702;28;20725;-67
2024/01/26 05:07:07;;;;;;;14.55;4.85;;;;;;;;;;5032762;28;20222;-67
2024/01/26 05:09:34;;;;;;;18.17;6.43;;;;;;;;;;5032611;28;20202;-67
2024/01/26 05:12:01;;;;;;;12.20;5.53;;;;;;;;;;5032515;28;20191;-67
2024/01/26 05:14:28;;;;;;;12.25;6.15;;;;;;;;;;5032788;28;20278;-67
2024/01/26 05:16:56;;;;;;;13.50;5.85;;;;;;;;;;5032694;28;20191;-67
2024/01/26 05:19:23;;;;;;;9.07;5.15;;;;;;;;;;5032461;28;20317;-67
2024/01/26 05:21:50;;;;;;;9.40;5.43;;;;;;;;;;5032516;28;20187;-67
2024/01/26 05:24:17;;;;;;;20.05;6.93;;;;;;;;;;5032491;28;20201;-67
2024/01/26 05:26:45;;;;;;;10.02;6.78;;;;;;;;;;5032150;28;20283;-67
2024/01/26 05:29:14;;;;;;;12.27;6.20;;;;;;;;;;5032501;28;20230;-67
2024/01/26 05:31:41;;;;;;;12.70;7.20;;;;;;;;;;5032358;28;20771;-67
2024/01/26 05:34:10;;;;;;;15.63;6.13;;;;;;;;;;5032416;28;20200;-67
2024/01/26 05:36:41;;;;;;;12.17;5.40;;;;;;;;;;5032350;28;20705;-67
2024/01/26 05:39:08;;;;;;;8.20;5.57;;;;;;;;;;5032181;28;21007;-67
2024/01/26 05:41:35;;;;;;;10.55;5.35;;;;;;;;;;5032458;28;20449;-67
2024/01/26 05:44:02;;;;;;;9.00;5.43;;;;;;;;;;5032213;28;20195;-67
2024/01/26 05:46:28;;;;;;;11.90;5.83;;;;;;;;;;5034035;28;20273;-67
2024/01/26 05:48:57;;;;;;;11.07;5.97;;;;;;;;;;5035939;28;20442;-67
2024/01/26 05:51:25;;;;;;;14.50;5.88;;;;;;;;;;5035721;28;20240;-67
2024/01/26 05:53:52;;;;;;;11.48;7.07;;;;;;;;;;5035625;28;20225;-67
2024/01/26 05:56:19;;;;;;;10.95;6.25;;;;;;;;;;5035571;28;20730;-67
2024/01/26 05:58:47;;;;;;;16.30;7.47;;;;;;;;;;5035673;28;20220;-67
2024/01/26 06:01:14;;;;;;;14.90;6.85;;;;;;;;;;5035764;28;20618;-67
2024/01/26 06:03:41;;;;;;;14.00;5.97;;;;;;;;;;5035594;28;20190;-68
2024/01/26 06:06:08;;;;;;;11.45;6.20;;;;;;;;;;5035488;28;20187;-67
2024/01/26 06:08:37;;;;;;;12.85;7.30;;;;;;;;;;5035633;28;20202;-67
2024/01/26 06:11:06;;;;;;;21.17;7.47;;;;;;;;;;5035307;28;20199;-67
2024/01/26 06:13:33;;;;;;;11.77;5.90;;;;;;;;;;5035341;28;20535;-67
2024/01/26 06:16:00;;;;;;;14.10;5.70;;;;;;;;;;5035169;28;20452;-67
2024/01/26 06:18:26;;;;;;;10.48;5.72;;;;;;;;;;5035157;28;20191;-67
2024/01/26 06:20:53;;;;;;;11.15;5.63;;;;;;;;;;5035091;28;20577;-67
2024/01/26 06:23:20;;;;;;;20.95;6.80;;;;;;;;;;5035337;28;20290;-67
2024/01/26 06:25:49;;;;;;;16.85;6.82;;;;;;;;;;5035062;28;20229;-67
2024/01/26 06:28:16;;;;;;;12.20;6.70;;;;;;;;;;5035182;28;20198;-67
2024/01/26 06:30:43;;;;;;;18.48;5.90;;;;;;;;;;5034979;28;20191;-67
2024/01/26 06:33:10;;;;;;;17.17;6.50;;;;;;;;;;5034956;28;20193;-67
2024/01/26 06:35:36;;;;;;;18.42;6.53;;;;;;;;;;5034931;28;20615;-67
2024/01/26 06:38:04;;;;;;;15.52;6.55;;;;;;;;;;5035059;28;20197;-67
2024/01/26 06:40:31;;;;;;;18.60;6.90;;;;;;;;;;5034865;28;20233;-67
2024/01/26 06:43:02;;;;;;;16.88;7.38;;;;;;;;;;5034870;28;20301;-67
2024/01/26 06:45:29;;;;;;;7.95;5.45;;;;;;;;;;5034758;28;20190;-67
2024/01/26 06:47:55;;;;;;;15.48;6.30;;;;;;;;;;5034642;28;20277;-67
2024/01/26 06:50:22;;;;;;;17.30;6.55;;;;;;;;;;5034777;28;20274;-67
2024/01/26 06:52:49;;;;;;;16.52;7.00;;;;;;;;;;5034836;28;20531;-67
2024/01/26 06:55:16;;;;;;;17.75;7.10;;;;;;;;;;5034755;28;20186;-67
2024/01/26 06:57:43;;;;;;;11.90;6.80;;;;;;;;;;5034359;28;20195;-67
2024/01/26 07:00:13;;;;;;;15.50;7.03;;;;;;;;;;5034392;28;20222;-67
2024/01/26 07:02:40;;;;;;;15.70;7.50;;;;;;;;;;5034422;28;20191;-67
2024/01/26 07:05:07;;;;;;;15.35;7.38;;;;;;;;;;5034564;28;20186;-67
2024/01/26 07:07:34;;;;;;;12.95;7.35;;;;;;;;;;5034312;28;20621;-67
2024/01/26 07:10:01;;;;;;;17.67;7.30;;;;;;;;;;5034381;28;20194;-67
2024/01/26 07:12:28;;;;;;;17.08;8.07;;;;;;;;;;5034113;28;20194;-67
2024/01/26 07:14:55;;;;;;;16.73;9.25;;;;;;;;;;5034175;28;20277;-67
2024/01/26 07:17:23;;;;;;;20.73;8.27;;;;;;;;;;5034045;28;20195;-67
2024/01/26 07:19:50;;;;;;;19.02;8.15;;;;;;;;;;5034133;28;20221;-67
2024/01/26 07:22:17;;;;;;;14.77;7.00;;;;;;;;;;5034169;28;20217;-67
2024/01/26 07:24:44;;;;;;;12.25;7.00;;;;;;;;;;5034135;28;20187;-67
2024/01/26 07:27:11;;;;;;;12.63;7.15;;;;;;;;;;5034026;28;20595;-67
2024/01/26 07:29:38;;;;;;;13.18;6.63;;;;;;;;;;5033791;28;20205;-68
2024/01/26 07:32:05;;;;;;;14.88;6.88;;;;;;;;;;5034068;28;20253;-67
2024/01/26 07:34:33;;;;;;;16.60;6.15;;;;;;;;;;5034026;28;20271;-67
2024/01/26 07:37:00;;;;;;;13.20;6.28;;;;;;;;;;5033772;28;20186;-67
2024/01/26 07:39:27;;;;;;;13.77;6.47;;;;;;;;;;5033688;28;20194;-67
2024/01/26 07:41:54;;;;;;;11.17;6.60;;;;;;;;;;5033696;28;20706;-67
2024/01/26 07:44:21;;;;;;;17.40;6.93;;;;;;;;;;5033645;28;20758;-66
2024/01/26 07:46:48;;;;;;;15.68;7.40;;;;;;;;;;5033782;28;20196;-68
2024/01/26 07:49:15;;;;;;;15.70;6.55;;;;;;;;;;5033603;28;20198;-68
2024/01/26 07:51:43;;;;;;;14.50;7.68;;;;;;;;;;5033431;28;20194;-67
2024/01/26 07:54:10;;;;;;;11.53;6.97;;;;;;;;;;5033385;28;20194;-67
2024/01/26 07:56:37;;;;;;;12.60;5.75;;;;;;;;;;5027213;28;20505;-67
2024/01/26 07:59:04;;;;;;;12.75;5.93;;;;;;;;;;5027920;28;20186;-68
2024/01/26 08:01:31;;;;;;;13.50;6.47;;;;;;;;;;5033489;28;20310;-68
2024/01/26 08:03:58;;;;;;;11.65;6.43;;;;;;;;;;5033359;28;20195;-67
2024/01/26 08:06:25;;;;;;;13.70;6.03;;;;;;;;;;5033037;28;20638;-67
2024/01/26 08:08:53;;;;;;;10.77;5.90;;;;;;;;;;5032372;28;20202;-67
2024/01/26 08:11:20;;;;;;;13.38;5.38;;;;;;;;;;5032853;28;20556;-67
2024/01/26 08:13:47;;;;;;;18.40;6.40;;;;;;;;;;5032769;28;20250;-67
2024/01/26 08:16:15;;;;;;;9.67;6.30;;;;;;;;;;5032836;28;20277;-68
2024/01/26 08:18:42;;;;;;;18.03;6.50;;;;;;;;;;5032850;28;20945;-68
2024/01/26 08:21:10;;;;;;;16.17;5.80;;;;;;;;;;5032902;28;20503;-67
2024/01/26 08:23:37;;;;;;;14.20;6.20;;;;;;;;;;5032784;28;20451;-67
2024/01/26 08:26:06;;;;;;;11.63;6.38;;;;;;;;;;5032547;28;20972;-66
2024/01/26 08:28:34;;;;;;;13.32;5.75;;;;;;;;;;5032856;28;20198;-68
2024/01/26 08:31:01;;;;;;;14.03;6.63;;;;;;;;;;5033056;28;20372;-68
2024/01/26 08:33:28;;;;;;;19.10;8.23;;;;;;;;;;5032826;28;20535;-68
2024/01/26 08:35:55;;;;;;;17.30;5.93;;;;;;;;;;5032829;28;20544;-67
2024/01/26 08:38:22;;;;;;;18.33;6.83;;;;;;;;;;5032707;28;20539;-69
2024/01/26 08:40:48;;;;;;;15.07;6.50;;;;;;;;;;5032767;28;20491;-66
2024/01/26 08:43:17;;;;;;;15.37;8.10;;;;;;;;;;5032885;28;20881;-67
2024/01/26 08:45:44;;;;;;;11.93;5.60;;;;;;;;;;5032765;28;20543;-67
2024/01/26 08:48:11;;;;;;;15.83;6.20;;;;;;;;;;5032754;28;20445;-67
2024/01/26 08:50:38;;;;;;;16.43;6.30;;;;;;;;;;5032708;28;20452;-67
2024/01/26 08:53:06;;;;;;;9.80;6.33;;;;;;;;;;5032666;28;20491;-67
2024/01/26 08:55:33;;;;;;;12.50;5.80;;;;;;;;;;5032537;28;20460;-67
2024/01/26 08:58:02;;;;;;;19.50;6.53;;;;;;;;;;5032738;28;20190;-67
2024/01/26 09:00:30;;;;;;;21.10;7.47;;;;;;;;;;5032575;28;20894;-68
2024/01/26 09:02:57;;;;;;;15.50;5.93;;;;;;;;;;5032426;28;20536;-67
2024/01/26 09:05:24;;;;;;;17.80;6.80;;;;;;;;;;5032394;28;20529;-67
2024/01/26 09:07:51;;;;;;;15.40;6.53;;;;;;;;;;5032740;28;20536;-69
2024/01/26 09:10:19;;;;;;;11.83;6.37;;;;;;;;;;5032563;28;20460;-69
2024/01/26 09:12:46;;;;;;;14.47;8.07;;;;;;;;;;5032466;28;20445;-67
2024/01/26 09:15:13;;;;;;;11.20;5.80;;;;;;;;;;5032422;28;20543;-68
2024/01/26 09:17:41;;;;;;;23.77;6.27;;;;;;;;;;5032422;28;20537;-71
2024/01/26 09:20:09;;;;;;;9.07;6.27;;;;;;;;;;5033334;28;20897;-69
2024/01/26 09:22:36;;;;;;;8.87;6.10;;;;;;;;;;5036372;28;20477;-70
2024/01/26 09:25:03;;;;;;;11.67;6.87;;;;;;;;;;5038146;28;20445;-70
2024/01/26 09:27:30;;;;;;;12.90;7.23;;;;;;;;;;5035757;28;20941;-69
2024/01/26 09:29:57;;;;;;;13.37;7.60;;;;;;;;;;5036096;28;20445;-69
2024/01/26 09:32:24;;;;;;;15.50;7.60;;;;;;;;;;5036139;28;20528;-69
2024/01/26 09:34:53;;;;;;;14.80;7.27;;;;;;;;;;5035996;28;20469;-68
2024/01/26 09:37:20;;;;;;;16.40;7.27;;;;;;;;;;5036133;28;20858;-68
2024/01/26 09:39:47;;;;;;;18.37;7.40;;;;;;;;;;5036074;28;20452;-68
2024/01/26 09:42:14;;;;;;;15.73;7.80;;;;;;;;;;5035829;28;20485;-67
2024/01/26 09:44:41;;;;;;;17.97;9.10;;;;;;;;;;5035988;28;20889;-68
2024/01/26 09:47:09;;;;;;;23.70;9.07;;;;;;;;;;5035787;28;20449;-69
2024/01/26 09:49:36;;;;;;;17.77;7.57;;;;;;;;;;5035918;28;20535;-68
2024/01/26 09:52:05;;;;;;;10.60;5.30;;;;;;;;;;5035685;28;21010;-68
2024/01/26 09:54:32;;;;;;;14.97;5.90;;;;;;;;;;5035641;28;20445;-67
2024/01/26 09:56:59;;;;;;;12.20;5.93;;;;;;;;;;5035559;28;20449;-68
2024/01/26 09:59:26;;;;;;;10.90;6.10;;;;;;;;;;5035591;28;20528;-68
2024/01/26 10:01:53;;;;;;;17.07;5.83;;;;;;;;;;5035364;28;20481;-67
2024/01/26 10:04:20;;;;;;;17.90;6.50;;;;;;;;;;5035611;28;20533;-67
2024/01/26 10:06:48;;;;;;;10.93;5.50;;;;;;;;;;5035542;28;20534;-68
2024/01/26 10:09:17;;;;;;;8.17;5.70;;;;;;;;;;5035426;28;20541;-68
2024/01/26 10:11:44;;;;;;;14.17;5.90;;;;;;;;;;5035337;28;20452;-68
2024/01/26 10:14:20;;;;;;;11.70;5.87;;;;;;;;;;5035044;28;20441;-67
2024/01/26 10:16:54;;;;;;;13.60;6.67;;;;;;;;;;5035356;28;20531;-68
2024/01/26 10:19:23;;;;;;;17.87;8.00;;;;;;;;;;5035349;28;20598;-67
2024/01/26 10:21:50;;;;;;;16.73;7.00;;;;;;;;;;5035090;28;20519;-68
2024/01/26 10:24:19;;;;;;;11.57;6.63;;;;;;;;;;5035157;28;20503;-67
2024/01/26 10:26:46;;;;;;;15.80;6.00;;;;;;;;;;5034742;28;20473;-67
2024/01/26 10:29:13;;;;;;;13.23;6.30;;;;;;;;;;5035186;28;20893;-67
2024/01/26 10:31:42;;;;;;;13.70;5.77;;;;;;;;;;5034449;28;20449;-67
2024/01/26 10:34:10;;;;;;;15.77;8.27;;;;;;;;;;5035043;28;20468;-67
2024/01/26 10:36:37;;;;;;;18.30;7.23;;;;;;;;;;5034973;28;20560;-68
2024/01/26 10:39:05;;;;;;;12.37;6.00;;;;;;;;;;5034778;28;20536;-68
2024/01/26 10:41:37;;;;;;;14.70;6.33;;;;;;;;;;5034828;28;20496;-67
2024/01/26 10:44:05;;;;;;;16.00;6.43;;;;;;;;;;5035059;28;20456;-67
2024/01/26 10:46:32;;;;;;;20.93;9.10;;;;;;;;;;5035111;28;20451;-68
2024/01/26 10:48:59;;;;;;;12.97;5.97;;;;;;;;;;5034655;28;20482;-68
2024/01/26 10:51:26;;;;;;;14.00;6.07;;;;;;;;;;5034615;28;20546;-68
2024/01/26 10:53:53;;;;;;;12.90;5.90;;;;;;;;;;5034359;28;20528;-68
2024/01/26 10:56:20;;;;;;;10.53;5.90;;;;;;;;;;5034634;28;20539;-68
2024/01/26 10:58:49;;;;;;;11.57;5.77;;;;;;;;;;5034791;28;20445;-66
2024/01/26 11:01:16;;;;;;;12.90;6.13;;;;;;;;;;5034502;28;20972;-68
2024/01/26 11:03:44;;;;;;;14.87;6.53;;;;;;;;;;5034553;28;20449;-68
2024/01/26 11:06:13;;;;;;;10.23;5.67;;;;;;;;;;5034322;28;20887;-68
2024/01/26 11:08:41;;;;;;;10.50;4.83;;;;;;;;;;5034761;28;20453;-67
2024/01/26 11:11:08;;;;;;;10.50;5.27;;;;;;;;;;5034399;28;20453;-68
2024/01/26 11:13:37;;;;;;;8.10;5.70;;;;;;;;;;5034129;28;21025;-67
2024/01/26 11:16:06;;;;;;;11.17;4.87;;;;;;;;;;5034008;28;20921;-68
2024/01/26 11:18:35;;;;;;;12.20;6.30;;;;;;;;;;5034077;28;20449;-68
2024/01/26 11:21:03;;;;;;;10.37;5.73;;;;;;;;;;5033971;28;20473;-69
2024/01/26 11:23:36;;;;;;;9.03;4.80;;;;;;;;;;5034080;28;20453;-68
2024/01/26 11:26:03;;;;;;;8.03;4.10;;;;;;;;;;5034100;28;20565;-69
2024/01/26 11:28:30;;;;;;;8.50;4.37;;;;;;;;;;5033942;28;20485;-68
2024/01/26 11:30:58;;;;;;;8.87;4.63;;;;;;;;;;5033820;28;20540;-68
2024/01/26 11:33:35;;;;;;;9.97;4.07;;;;;;;;;;5033757;28;20935;-69
2024/01/26 11:36:04;;;;;;;7.23;4.40;;;;;;;;;;5034049;28;20866;-68
2024/01/26 11:38:30;;;;;;;7.30;4.03;;;;;;;;;;5034099;28;20445;-69
2024/01/26 11:40:58;;;;;;;9.43;4.37;;;;;;;;;;5033856;28;20535;-69
2024/01/26 11:43:26;;;;;;;8.30;3.90;;;;;;;;;;5032595;28;20449;-69
2024/01/26 11:45:53;;;;;;;9.20;4.10;;;;;;;;;;5033528;28;20452;-68
2024/01/26 11:48:21;;;;;;;11.20;4.07;;;;;;;;;;5033756;28;20528;-68
2024/01/26 11:50:49;;;;;;;13.27;11.97;;;;;;;;;;5033978;28;20480;-69
2024/01/26 11:53:17;;;;;;;10.73;4.87;;;;;;;;;;5033580;28;20540;-69
2024/01/26 11:55:45;;;;;;;5.70;3.97;;;;;;;;;;5033483;28;20529;-69
2024/01/26 11:58:12;;;;;;;3.80;3.50;;;;;;;;;;5033214;28;20545;-68
2024/01/26 12:00:39;;;;;;;9.83;3.77;;;;;;;;;;5033597;28;20449;-68
2024/01/26 12:03:07;;;;;;;4.07;3.53;;;;;;;;;;5033440;28;20580;-68
2024/01/26 12:05:34;;;;;;;5.83;3.60;;;;;;;;;;5033352;28;20853;-69
2024/01/26 12:08:04;;;;;;;6.00;3.50;;;;;;;;;;5033329;28;20461;-69
2024/01/26 12:10:32;;;;;;;4.53;3.23;;;;;;;;;;5033213;28;20445;-69
2024/01/26 12:12:59;;;;;;;6.10;3.13;;;;;;;;;;5033036;28;20460;-68
2024/01/26 12:15:30;;;;;;;7.03;3.23;;;;;;;;;;5033095;28;21000;-68
2024/01/26 12:17:59;;;;;;;2.97;2.73;;;;;;;;;;5033197;28;20485;-68
2024/01/26 12:20:26;;;;;;;5.60;3.20;;;;;;;;;;5033161;28;20449;-68
2024/01/26 12:22:55;;;;;;;5.63;3.40;;;;;;;;;;5032915;28;20980;-68
2024/01/26 12:25:27;;;;;;;5.40;3.23;;;;;;;;;;5032757;28;20473;-68
2024/01/26 12:27:55;;;;;;;4.20;3.47;;;;;;;;;;5033119;28;20450;-67
2024/01/26 12:30:21;;;;;;;2.93;2.70;;;;;;;;;;5033092;28;20459;-67
2024/01/26 12:32:48;;;;;;;4.60;2.97;;;;;;;;;;5033141;28;20895;-67
2024/01/26 12:35:15;;;;;;;5.40;3.30;;;;;;;;;;5032936;28;20536;-67
2024/01/26 12:37:45;;;;;;;6.67;4.10;;;;;;;;;;5033142;28;20449;-66
2024/01/26 12:40:12;;;;;;;7.30;4.30;;;;;;;;;;5032942;28;20488;-66
2024/01/26 12:42:40;;;;;;;9.80;5.03;;;;;;;;;;5032874;28;20491;-66
2024/01/26 12:45:08;;;;;;;8.30;5.53;;;;;;;;;;5032777;28;21031;-66
2024/01/26 12:47:35;;;;;;;6.60;4.60;;;;;;;;;;5033094;28;20533;-66
2024/01/26 12:50:02;;;;;;;7.13;5.00;;;;;;;;;;5032753;28;20536;-66
2024/01/26 12:52:29;;;;;;;5.93;3.87;;;;;;;;;;5032435;28;20449;-67
2024/01/26 12:54:55;;;;;;;5.47;3.60;;;;;;;;;;5033744;28;20456;-66
2024/01/26 12:57:22;;;;;;;7.20;4.00;;;;;;;;;;5036934;28;20883;-66
2024/01/26 12:59:51;;;;;;;4.93;4.03;;;;;;;;;;5036670;28;20536;-66
2024/01/26 13:02:19;;;;;;;4.23;3.00;;;;;;;;;;5036701;28;20481;-66
2024/01/26 13:04:49;;;;;;;5.30;4.00;;;;;;;;;;5036683;28;20455;-66
2024/01/26 13:07:16;;;;;;;7.40;4.17;;;;;;;;;;5037095;28;20448;-66
2024/01/26 13:09:43;;;;;;;5.80;3.90;;;;;;;;;;5036788;28;21105;-66
2024/01/26 13:12:10;;;;;;;4.00;3.60;;;;;;;;;;5036876;28;20601;-66
2024/01/26 13:14:37;;;;;;;5.23;2.83;;;;;;;;;;5036619;28;20556;-66
2024/01/26 13:17:05;;;;;;;3.70;3.40;;;;;;;;;;5036286;28;20940;-67
2024/01/26 13:19:32;;;;;;;7.43;3.80;;;;;;;;;;5036388;28;20445;-66
2024/01/26 13:21:59;;;;;;;4.27;3.80;;;;;;;;;;5036517;28;21072;-66
2024/01/26 13:24:26;;;;;;;7.73;4.07;;;;;;;;;;5036462;28;20452;-66
2024/01/26 13:26:53;;;;;;;8.73;5.40;;;;;;;;;;5036047;28;21089;-66
2024/01/26 13:29:20;;;;;;;5.20;3.40;;;;;;;;;;5036298;28;20488;-66
2024/01/26 13:31:47;;;;;;;4.50;3.90;;;;;;;;;;5036180;28;20540;-66
2024/01/26 13:34:16;;;;;;;6.00;3.57;;;;;;;;;;5036052;28;20445;-66
2024/01/26 13:36:44;;;;;;;5.23;3.47;;;;;;;;;;5036269;28;20444;-66
2024/01/26 13:39:11;;;;;;;4.50;4.00;;;;;;;;;;5036156;28;20448;-66
2024/01/26 13:41:38;;;;;;;3.83;3.50;;;;;;;;;;5036030;28;20530;-66
2024/01/26 13:44:05;;;;;;;7.37;4.13;;;;;;;;;;5035890;28;20537;-67
2024/01/26 13:46:32;;;;;;;6.87;3.50;;;;;;;;;;5035645;28;20529;-67
2024/01/26 13:48:59;;;;;;;4.33;3.40;;;;;;;;;;5036093;28;20481;-66
2024/01/26 13:51:27;;;;;;;5.60;3.67;;;;;;;;;;5035854;28;20814;-66
2024/01/26 13:53:54;;;;;;;3.57;3.27;;;;;;;;;;5035790;28;20964;-66
2024/01/26 13:56:21;;;;;;;4.60;3.80;;;;;;;;;;5035782;28;20538;-66
2024/01/26 13:58:48;;;;;;;3.93;3.23;;;;;;;;;;5035758;28;20891;-66
2024/01/26 14:01:15;;;;;;;3.27;2.97;;;;;;;;;;5035530;28;20451;-67
2024/01/26 14:03:42;;;;;;;3.90;2.70;;;;;;;;;;5035763;28;20858;-67
2024/01/26 14:06:09;;;;;;;5.50;3.00;;;;;;;;;;5034936;28;20445;-67
2024/01/26 14:08:38;;;;;;;6.47;3.27;;;;;;;;;;5035307;28;20445;-67
2024/01/26 14:11:06;;;;;;;3.80;3.50;;;;;;;;;;5035764;28;20449;-67
2024/01/26 14:13:33;;;;;;;5.63;5.13;;;;;;;;;;5035482;28;20808;-67
2024/01/26 14:16:00;;;;;;;3.30;3.00;;;;;;;;;;5035379;28;20949;-67
2024/01/26 14:18:27;;;;;;;4.30;3.37;;;;;;;;;;5035454;28;20481;-67
2024/01/26 14:20:54;;;;;;;3.23;3.03;;;;;;;;;;5035425;28;20544;-67
2024/01/26 14:23:21;;;;;;;3.20;3.00;;;;;;;;;;5035306;28;20484;-67
2024/01/26 14:25:50;;;;;;;3.87;3.67;;;;;;;;;;5035098;28;20905;-67
2024/01/26 14:28:18;;;;;;;5.60;3.83;;;;;;;;;;5035073;28;20449;-67
2024/01/26 14:30:47;;;;;;;6.33;5.70;;;;;;;;;;5035373;28;20446;-67
2024/01/26 14:33:14;;;;;;;5.00;4.50;;;;;;;;;;5035195;28;20520;-67
2024/01/26 14:35:43;;;;;;;4.37;3.97;;;;;;;;;;5035056;28;20528;-67